Alma, IL (62807)

11:57 AM CDT on August 30, 2015 (GMT -0500)
Alma Weather Station | | Change Station
CLOSE
Current Station
Personal Weather Station
Location: Alma, IL
Elevation: 595 ft
Nearby Weather Stations

Elev 595 ft 38.71 °N, 88.91 °W | Updated 50 seconds ago

Partly Cloudy
Partly Cloudy
81.6 °F
Feels Like 85 °F
N
6.0
Wind Variable Wind from South
Gusts 12.0 mph

Today
High -- | Low -- °F
--% Chance of Precip.
Yesterday
High -- | Low -- °F
Precip. -- in
6:22 AM 7:29 PM
Full, 99% visible
Pressure 30.09 in
Visibility 10.0 miles
Clouds Scattered Clouds 2500 ft
Heat Index 85 °F
Dew Point 69 °F
Humidity 65%
Rainfall 0.00 in
Snow Depth Not available.
UV 7 out of 12
Pollen 10.60 out of 12
Air Quality Not available.
Flu Activity Not available.
METAR KSLO 301635Z AUTO 23007KT 200V260 10SM SCT025 28/20 A3009 RMK AO2 T02840204
Pressure 30.09 in
Visibility 10.0 miles
Clouds Scattered Clouds 2500 ft
Heat Index 85 °F
Dew Point 69 °F
Humidity 65%
Rainfall 0.00 in
Snow Depth Not available.
UV 7 out of 12
Pollen 10.60 out of 12
Air Quality Not available.
Flu Activity Not available.
METAR KSLO 301635Z AUTO 23007KT 200V260 10SM SCT025 28/20 A3009 RMK AO2 T02840204

10-Day Weather Forecast

×

Almanac

Astronomy

Aug. 30, 2015 Rise Set
Actual Time
Civil Twilight
Nautical Twilight
Astronomical Twilight
Moon
Length of Visible Light
Length of Day
Tomorrow will be .
, % of the Moon is Illuminated

Today's Extremes

State Highs State Lows

Community

WunderPhotos

Upload Photos

1,851,008 photos uploaded!

WunderBlogs® & News

Nearby

Air Quality

  Air Quality AQ Index Pollutant
Not available.

Snow Depth

Station Depth Elevation

Earthquake Activity

City Distance Mag. Time & Date
Minimum magnitude displayed is 2.5.

Coastal Water Temperatures

Place Temperature

Stations

Nearby Weather Stations

Station Location Temp. Windchill Dew Point Humidity Wind Precip. Elev Updated Type